sensor_id;sensor_type;location;lat;lon;timestamp;P1;durP1;ratioP1;P2;durP2;ratioP2
22764;SDS011;11549;50.852;3.816;2022-07-23T00:01:30;15.05;;;10.57;;
22764;SDS011;11549;50.852;3.816;2022-07-23T00:03:59;14.32;;;9.68;;
22764;SDS011;11549;50.852;3.816;2022-07-23T00:06:27;12.63;;;9.82;;
22764;SDS011;11549;50.852;3.816;2022-07-23T00:08:57;14.30;;;10.55;;
22764;SDS011;11549;50.852;3.816;2022-07-23T00:11:26;16.33;;;11.40;;
22764;SDS011;11549;50.852;3.816;2022-07-23T00:13:54;13.45;;;11.07;;
22764;SDS011;11549;50.852;3.816;2022-07-23T00:16:24;15.85;;;11.98;;
22764;SDS011;11549;50.852;3.816;2022-07-23T00:18:52;13.10;;;11.00;;
22764;SDS011;11549;50.852;3.816;2022-07-23T00:21:21;13.90;;;11.90;;
22764;SDS011;11549;50.852;3.816;2022-07-23T00:23:49;14.70;;;12.25;;
22764;SDS011;11549;50.852;3.816;2022-07-23T00:26:19;17.38;;;12.48;;
22764;SDS011;11549;50.852;3.816;2022-07-23T00:28:47;19.67;;;13.52;;
22764;SDS011;11549;50.852;3.816;2022-07-23T00:31:16;15.95;;;12.85;;
22764;SDS011;11549;50.852;3.816;2022-07-23T00:33:44;18.77;;;13.57;;
22764;SDS011;11549;50.852;3.816;2022-07-23T00:36:13;17.85;;;13.48;;
22764;SDS011;11549;50.852;3.816;2022-07-23T00:38:41;21.23;;;14.35;;
22764;SDS011;11549;50.852;3.816;2022-07-23T00:41:09;16.60;;;13.57;;
22764;SDS011;11549;50.852;3.816;2022-07-23T00:43:39;18.90;;;15.70;;
22764;SDS011;11549;50.852;3.816;2022-07-23T00:46:07;18.98;;;15.63;;
22764;SDS011;11549;50.852;3.816;2022-07-23T00:48:36;20.58;;;15.45;;
22764;SDS011;11549;50.852;3.816;2022-07-23T00:51:05;20.70;;;15.77;;
22764;SDS011;11549;50.852;3.816;2022-07-23T00:53:34;21.60;;;16.67;;
22764;SDS011;11549;50.852;3.816;2022-07-23T00:56:02;21.95;;;16.67;;
22764;SDS011;11549;50.852;3.816;2022-07-23T00:58:32;20.65;;;16.27;;
22764;SDS011;11549;50.852;3.816;2022-07-23T01:01:04;20.77;;;16.67;;
22764;SDS011;11549;50.852;3.816;2022-07-23T01:03:32;22.02;;;16.52;;
22764;SDS011;11549;50.852;3.816;2022-07-23T01:06:00;20.70;;;16.52;;
22764;SDS011;11549;50.852;3.816;2022-07-23T01:08:29;21.98;;;17.60;;
22764;SDS011;11549;50.852;3.816;2022-07-23T01:10:57;20.70;;;16.83;;
22764;SDS011;11549;50.852;3.816;2022-07-23T01:13:25;19.48;;;16.95;;
22764;SDS011;11549;50.852;3.816;2022-07-23T01:15:54;21.38;;;17.00;;
22764;SDS011;11549;50.852;3.816;2022-07-23T01:18:24;21.20;;;17.98;;
22764;SDS011;11549;50.852;3.816;2022-07-23T01:20:52;22.92;;;18.60;;
22764;SDS011;11549;50.852;3.816;2022-07-23T01:23:22;22.95;;;18.60;;
22764;SDS011;11549;50.852;3.816;2022-07-23T01:25:51;26.13;;;19.42;;
22764;SDS011;11549;50.852;3.816;2022-07-23T01:28:20;22.55;;;18.20;;
22764;SDS011;11549;50.852;3.816;2022-07-23T01:30:49;27.00;;;19.70;;
22764;SDS011;11549;50.852;3.816;2022-07-23T01:33:17;24.08;;;19.58;;
22764;SDS011;11549;50.852;3.816;2022-07-23T01:35:46;25.45;;;19.27;;
22764;SDS011;11549;50.852;3.816;2022-07-23T01:38:14;23.48;;;19.60;;
22764;SDS011;11549;50.852;3.816;2022-07-23T01:40:44;24.98;;;18.60;;
22764;SDS011;11549;50.852;3.816;2022-07-23T01:43:19;24.02;;;18.80;;
22764;SDS011;11549;50.852;3.816;2022-07-23T01:45:51;25.83;;;19.45;;
22764;SDS011;11549;50.852;3.816;2022-07-23T01:48:19;23.08;;;18.67;;
22764;SDS011;11549;50.852;3.816;2022-07-23T01:50:47;22.73;;;18.58;;
22764;SDS011;11549;50.852;3.816;2022-07-23T01:53:16;28.25;;;21.17;;
22764;SDS011;11549;50.852;3.816;2022-07-23T01:55:45;23.45;;;19.05;;
22764;SDS011;11549;50.852;3.816;2022-07-23T01:58:14;23.13;;;19.10;;
22764;SDS011;11549;50.852;3.816;2022-07-23T02:00:42;23.15;;;19.58;;
22764;SDS011;11549;50.852;3.816;2022-07-23T02:03:11;24.23;;;19.73;;
22764;SDS011;11549;50.852;3.816;2022-07-23T02:05:39;22.08;;;18.58;;
22764;SDS011;11549;50.852;3.816;2022-07-23T02:08:07;23.73;;;18.00;;
22764;SDS011;11549;50.852;3.816;2022-07-23T02:10:36;20.55;;;17.27;;
22764;SDS011;11549;50.852;3.816;2022-07-23T02:13:05;24.33;;;18.40;;
22764;SDS011;11549;50.852;3.816;2022-07-23T02:15:34;24.80;;;18.27;;
22764;SDS011;11549;50.852;3.816;2022-07-23T02:18:02;21.45;;;17.33;;
22764;SDS011;11549;50.852;3.816;2022-07-23T02:20:31;22.45;;;18.77;;
22764;SDS011;11549;50.852;3.816;2022-07-23T02:23:00;20.02;;;17.42;;
22764;SDS011;11549;50.852;3.816;2022-07-23T02:25:28;22.30;;;18.10;;
22764;SDS011;11549;50.852;3.816;2022-07-23T02:27:56;21.00;;;16.48;;
22764;SDS011;11549;50.852;3.816;2022-07-23T02:30:26;23.48;;;18.88;;
22764;SDS011;11549;50.852;3.816;2022-07-23T02:32:55;19.65;;;16.15;;
22764;SDS011;11549;50.852;3.816;2022-07-23T02:35:23;22.75;;;18.83;;
22764;SDS011;11549;50.852;3.816;2022-07-23T02:37:51;22.52;;;19.50;;
22764;SDS011;11549;50.852;3.816;2022-07-23T02:40:19;21.58;;;18.45;;
22764;SDS011;11549;50.852;3.816;2022-07-23T02:42:48;20.50;;;16.83;;
22764;SDS011;11549;50.852;3.816;2022-07-23T02:45:16;21.02;;;17.60;;
22764;SDS011;11549;50.852;3.816;2022-07-23T02:47:46;22.85;;;18.48;;
22764;SDS011;11549;50.852;3.816;2022-07-23T02:50:14;20.30;;;17.00;;
22764;SDS011;11549;50.852;3.816;2022-07-23T02:52:43;22.45;;;18.05;;
22764;SDS011;11549;50.852;3.816;2022-07-23T02:55:11;23.85;;;18.25;;
22764;SDS011;11549;50.852;3.816;2022-07-23T02:57:39;21.55;;;18.20;;
22764;SDS011;11549;50.852;3.816;2022-07-23T03:00:08;17.85;;;15.65;;
22764;SDS011;11549;50.852;3.816;2022-07-23T03:02:37;18.60;;;15.32;;
22764;SDS011;11549;50.852;3.816;2022-07-23T03:05:08;21.45;;;16.77;;
22764;SDS011;11549;50.852;3.816;2022-07-23T03:07:37;20.05;;;17.02;;
22764;SDS011;11549;50.852;3.816;2022-07-23T03:10:06;21.08;;;17.42;;
22764;SDS011;11549;50.852;3.816;2022-07-23T03:12:35;19.38;;;16.67;;
22764;SDS011;11549;50.852;3.816;2022-07-23T03:15:04;21.90;;;16.58;;
22764;SDS011;11549;50.852;3.816;2022-07-23T03:17:33;22.67;;;18.70;;
22764;SDS011;11549;50.852;3.816;2022-07-23T03:20:02;24.48;;;18.63;;
22764;SDS011;11549;50.852;3.816;2022-07-23T03:22:32;21.08;;;17.40;;
22764;SDS011;11549;50.852;3.816;2022-07-23T03:25:00;20.55;;;16.88;;
22764;SDS011;11549;50.852;3.816;2022-07-23T03:27:29;20.58;;;17.10;;
22764;SDS011;11549;50.852;3.816;2022-07-23T03:29:58;23.27;;;18.05;;
22764;SDS011;11549;50.852;3.816;2022-07-23T03:32:27;21.60;;;16.92;;
22764;SDS011;11549;50.852;3.816;2022-07-23T03:34:55;20.40;;;16.92;;
22764;SDS011;11549;50.852;3.816;2022-07-23T03:37:24;19.20;;;16.17;;
22764;SDS011;11549;50.852;3.816;2022-07-23T03:39:55;22.20;;;18.05;;
22764;SDS011;11549;50.852;3.816;2022-07-23T03:42:23;21.00;;;16.42;;
22764;SDS011;11549;50.852;3.816;2022-07-23T03:44:51;21.88;;;18.25;;
22764;SDS011;11549;50.852;3.816;2022-07-23T03:47:20;22.48;;;17.77;;
22764;SDS011;11549;50.852;3.816;2022-07-23T03:49:49;22.40;;;17.58;;
22764;SDS011;11549;50.852;3.816;2022-07-23T03:52:17;22.67;;;17.05;;
22764;SDS011;11549;50.852;3.816;2022-07-23T03:54:46;22.65;;;18.23;;
22764;SDS011;11549;50.852;3.816;2022-07-23T03:57:15;21.92;;;18.35;;
22764;SDS011;11549;50.852;3.816;2022-07-23T03:59:44;26.63;;;19.35;;
22764;SDS011;11549;50.852;3.816;2022-07-23T04:02:12;24.63;;;19.38;;
22764;SDS011;11549;50.852;3.816;2022-07-23T04:04:40;25.20;;;18.88;;
22764;SDS011;11549;50.852;3.816;2022-07-23T04:07:09;21.05;;;17.40;;
22764;SDS011;11549;50.852;3.816;2022-07-23T04:09:37;22.05;;;18.55;;
22764;SDS011;11549;50.852;3.816;2022-07-23T04:12:11;22.20;;;17.35;;
22764;SDS011;11549;50.852;3.816;2022-07-23T04:14:41;24.98;;;19.05;;
22764;SDS011;11549;50.852;3.816;2022-07-23T04:17:10;23.63;;;18.10;;
22764;SDS011;11549;50.852;3.816;2022-07-23T04:19:38;22.98;;;17.90;;
22764;SDS011;11549;50.852;3.816;2022-07-23T04:22:10;25.27;;;19.73;;
22764;SDS011;11549;50.852;3.816;2022-07-23T04:24:38;24.23;;;18.67;;
22764;SDS011;11549;50.852;3.816;2022-07-23T04:27:07;22.73;;;18.40;;
22764;SDS011;11549;50.852;3.816;2022-07-23T04:29:35;24.77;;;18.77;;
22764;SDS011;11549;50.852;3.816;2022-07-23T04:32:05;20.35;;;15.65;;
22764;SDS011;11549;50.852;3.816;2022-07-23T04:34:33;18.05;;;15.25;;
22764;SDS011;11549;50.852;3.816;2022-07-23T04:37:02;22.75;;;17.40;;
22764;SDS011;11549;50.852;3.816;2022-07-23T04:39:30;18.85;;;15.70;;
22764;SDS011;11549;50.852;3.816;2022-07-23T04:41:58;18.58;;;14.52;;
22764;SDS011;11549;50.852;3.816;2022-07-23T04:44:27;20.17;;;15.93;;
22764;SDS011;11549;50.852;3.816;2022-07-23T04:46:55;16.80;;;14.32;;
22764;SDS011;11549;50.852;3.816;2022-07-23T04:49:25;15.82;;;13.60;;
22764;SDS011;11549;50.852;3.816;2022-07-23T04:51:54;15.68;;;13.07;;
22764;SDS011;11549;50.852;3.816;2022-07-23T04:54:22;17.20;;;14.45;;
22764;SDS011;11549;50.852;3.816;2022-07-23T04:56:50;15.98;;;13.68;;
22764;SDS011;11549;50.852;3.816;2022-07-23T04:59:19;17.95;;;14.80;;
22764;SDS011;11549;50.852;3.816;2022-07-23T05:01:47;16.83;;;13.63;;
22764;SDS011;11549;50.852;3.816;2022-07-23T05:04:15;16.33;;;13.63;;
22764;SDS011;11549;50.852;3.816;2022-07-23T05:06:46;17.23;;;14.38;;
22764;SDS011;11549;50.852;3.816;2022-07-23T05:09:14;19.30;;;15.07;;
22764;SDS011;11549;50.852;3.816;2022-07-23T05:11:42;22.10;;;16.92;;
22764;SDS011;11549;50.852;3.816;2022-07-23T05:14:11;19.42;;;16.52;;
22764;SDS011;11549;50.852;3.816;2022-07-23T05:16:39;19.15;;;15.98;;
22764;SDS011;11549;50.852;3.816;2022-07-23T05:19:08;19.40;;;15.10;;
22764;SDS011;11549;50.852;3.816;2022-07-23T05:21:36;20.30;;;15.80;;
22764;SDS011;11549;50.852;3.816;2022-07-23T05:24:06;17.60;;;14.77;;
22764;SDS011;11549;50.852;3.816;2022-07-23T05:26:35;18.30;;;15.18;;
22764;SDS011;11549;50.852;3.816;2022-07-23T05:29:03;19.42;;;15.82;;
22764;SDS011;11549;50.852;3.816;2022-07-23T05:31:33;19.35;;;15.35;;
22764;SDS011;11549;50.852;3.816;2022-07-23T05:34:01;17.00;;;14.95;;
22764;SDS011;11549;50.852;3.816;2022-07-23T05:36:30;21.90;;;15.50;;
22764;SDS011;11549;50.852;3.816;2022-07-23T05:38:59;18.48;;;14.93;;
22764;SDS011;11549;50.852;3.816;2022-07-23T05:41:29;18.42;;;14.68;;
22764;SDS011;11549;50.852;3.816;2022-07-23T05:43:58;18.67;;;15.13;;
22764;SDS011;11549;50.852;3.816;2022-07-23T05:46:26;17.33;;;13.43;;
22764;SDS011;11549;50.852;3.816;2022-07-23T05:48:55;17.88;;;14.10;;
22764;SDS011;11549;50.852;3.816;2022-07-23T05:51:24;19.48;;;15.05;;
22764;SDS011;11549;50.852;3.816;2022-07-23T05:53:53;17.70;;;14.02;;
22764;SDS011;11549;50.852;3.816;2022-07-23T05:56:21;18.35;;;14.75;;
22764;SDS011;11549;50.852;3.816;2022-07-23T05:58:51;19.15;;;14.13;;
22764;SDS011;11549;50.852;3.816;2022-07-23T06:01:19;18.38;;;14.52;;
22764;SDS011;11549;50.852;3.816;2022-07-23T06:03:48;17.17;;;14.20;;
22764;SDS011;11549;50.852;3.816;2022-07-23T06:06:16;18.05;;;14.60;;
22764;SDS011;11549;50.852;3.816;2022-07-23T06:08:45;20.35;;;14.52;;
22764;SDS011;11549;50.852;3.816;2022-07-23T06:11:13;16.52;;;13.15;;
22764;SDS011;11549;50.852;3.816;2022-07-23T06:13:41;14.88;;;12.40;;
22764;SDS011;11549;50.852;3.816;2022-07-23T06:16:11;16.85;;;13.98;;
22764;SDS011;11549;50.852;3.816;2022-07-23T06:18:39;18.65;;;14.13;;
22764;SDS011;11549;50.852;3.816;2022-07-23T06:21:08;16.35;;;13.73;;
22764;SDS011;11549;50.852;3.816;2022-07-23T06:23:56;17.45;;;12.90;;
22764;SDS011;11549;50.852;3.816;2022-07-23T06:26:24;15.63;;;12.80;;
22764;SDS011;11549;50.852;3.816;2022-07-23T06:28:53;18.10;;;13.93;;
22764;SDS011;11549;50.852;3.816;2022-07-23T06:31:22;17.63;;;13.65;;
22764;SDS011;11549;50.852;3.816;2022-07-23T06:33:51;18.00;;;14.20;;
22764;SDS011;11549;50.852;3.816;2022-07-23T06:36:19;18.38;;;13.77;;
22764;SDS011;11549;50.852;3.816;2022-07-23T06:38:48;15.60;;;13.57;;
22764;SDS011;11549;50.852;3.816;2022-07-23T06:41:17;19.00;;;14.43;;
22764;SDS011;11549;50.852;3.816;2022-07-23T06:43:45;17.63;;;13.35;;
22764;SDS011;11549;50.852;3.816;2022-07-23T06:46:14;17.80;;;13.18;;
22764;SDS011;11549;50.852;3.816;2022-07-23T06:48:43;14.57;;;13.07;;
22764;SDS011;11549;50.852;3.816;2022-07-23T06:51:12;15.02;;;12.68;;
22764;SDS011;11549;50.852;3.816;2022-07-23T06:53:40;16.17;;;11.93;;
22764;SDS011;11549;50.852;3.816;2022-07-23T06:56:08;15.90;;;11.63;;
22764;SDS011;11549;50.852;3.816;2022-07-23T06:58:37;13.10;;;11.38;;
22764;SDS011;11549;50.852;3.816;2022-07-23T07:01:05;15.05;;;11.43;;
22764;SDS011;11549;50.852;3.816;2022-07-23T07:03:34;15.95;;;12.77;;
22764;SDS011;11549;50.852;3.816;2022-07-23T07:06:03;13.00;;;11.48;;
22764;SDS011;11549;50.852;3.816;2022-07-23T07:08:32;15.30;;;12.07;;
22764;SDS011;11549;50.852;3.816;2022-07-23T07:11:00;13.88;;;11.38;;
22764;SDS011;11549;50.852;3.816;2022-07-23T07:13:28;15.07;;;11.65;;
22764;SDS011;11549;50.852;3.816;2022-07-23T07:15:56;13.40;;;10.80;;
22764;SDS011;11549;50.852;3.816;2022-07-23T07:18:25;16.20;;;12.15;;
22764;SDS011;11549;50.852;3.816;2022-07-23T07:20:53;13.90;;;10.90;;
22764;SDS011;11549;50.852;3.816;2022-07-23T07:23:23;17.83;;;10.48;;
22764;SDS011;11549;50.852;3.816;2022-07-23T07:25:51;12.32;;;10.65;;
22764;SDS011;11549;50.852;3.816;2022-07-23T07:28:20;13.43;;;11.13;;
22764;SDS011;11549;50.852;3.816;2022-07-23T07:30:48;13.80;;;9.52;;
22764;SDS011;11549;50.852;3.816;2022-07-23T07:33:17;12.15;;;9.43;;
22764;SDS011;11549;50.852;3.816;2022-07-23T07:35:45;14.88;;;11.38;;
22764;SDS011;11549;50.852;3.816;2022-07-23T07:38:13;14.25;;;10.10;;
22764;SDS011;11549;50.852;3.816;2022-07-23T07:40:43;12.07;;;9.85;;
22764;SDS011;11549;50.852;3.816;2022-07-23T07:43:12;14.50;;;11.18;;
22764;SDS011;11549;50.852;3.816;2022-07-23T07:45:40;16.45;;;11.20;;
22764;SDS011;11549;50.852;3.816;2022-07-23T07:48:08;13.20;;;10.13;;
22764;SDS011;11549;50.852;3.816;2022-07-23T07:50:37;14.23;;;10.73;;
22764;SDS011;11549;50.852;3.816;2022-07-23T07:53:05;14.07;;;10.35;;
22764;SDS011;11549;50.852;3.816;2022-07-23T07:55:35;14.20;;;9.77;;
22764;SDS011;11549;50.852;3.816;2022-07-23T07:58:05;14.20;;;10.50;;
22764;SDS011;11549;50.852;3.816;2022-07-23T08:00:33;14.48;;;9.68;;
22764;SDS011;11549;50.852;3.816;2022-07-23T08:03:01;12.32;;;10.00;;
22764;SDS011;11549;50.852;3.816;2022-07-23T08:05:30;14.15;;;10.20;;
22764;SDS011;11549;50.852;3.816;2022-07-23T08:07:58;14.52;;;10.60;;
22764;SDS011;11549;50.852;3.816;2022-07-23T08:10:27;14.05;;;11.00;;
22764;SDS011;11549;50.852;3.816;2022-07-23T08:12:58;11.35;;;8.85;;
22764;SDS011;11549;50.852;3.816;2022-07-23T08:15:29;15.05;;;9.80;;
22764;SDS011;11549;50.852;3.816;2022-07-23T08:17:58;10.93;;;9.15;;
22764;SDS011;11549;50.852;3.816;2022-07-23T08:20:27;13.02;;;10.63;;
22764;SDS011;11549;50.852;3.816;2022-07-23T08:22:56;11.75;;;10.15;;
22764;SDS011;11549;50.852;3.816;2022-07-23T08:25:27;11.82;;;9.75;;
22764;SDS011;11549;50.852;3.816;2022-07-23T08:27:57;11.73;;;9.15;;
22764;SDS011;11549;50.852;3.816;2022-07-23T08:30:26;9.68;;;7.75;;
22764;SDS011;11549;50.852;3.816;2022-07-23T08:32:57;12.45;;;7.10;;
22764;SDS011;11549;50.852;3.816;2022-07-23T08:35:28;10.48;;;7.30;;
22764;SDS011;11549;50.852;3.816;2022-07-23T08:37:58;10.38;;;7.50;;
22764;SDS011;11549;50.852;3.816;2022-07-23T08:40:28;10.82;;;7.82;;
22764;SDS011;11549;50.852;3.816;2022-07-23T08:42:57;9.27;;;6.72;;
22764;SDS011;11549;50.852;3.816;2022-07-23T08:45:28;12.35;;;7.45;;
22764;SDS011;11549;50.852;3.816;2022-07-23T08:47:57;11.45;;;6.32;;
22764;SDS011;11549;50.852;3.816;2022-07-23T08:50:28;8.27;;;6.82;;
22764;SDS011;11549;50.852;3.816;2022-07-23T08:52:56;9.93;;;6.60;;
22764;SDS011;11549;50.852;3.816;2022-07-23T08:55:29;7.25;;;5.30;;
22764;SDS011;11549;50.852;3.816;2022-07-23T08:57:57;9.15;;;6.15;;
22764;SDS011;11549;50.852;3.816;2022-07-23T09:00:25;7.65;;;4.82;;
22764;SDS011;11549;50.852;3.816;2022-07-23T09:02:56;9.65;;;5.65;;
22764;SDS011;11549;50.852;3.816;2022-07-23T09:05:24;7.13;;;4.53;;
22764;SDS011;11549;50.852;3.816;2022-07-23T09:08:05;5.40;;;3.92;;
22764;SDS011;11549;50.852;3.816;2022-07-23T09:10:45;6.57;;;3.75;;
22764;SDS011;11549;50.852;3.816;2022-07-23T09:13:25;6.63;;;4.20;;
22764;SDS011;11549;50.852;3.816;2022-07-23T09:15:59;5.90;;;4.68;;
22764;SDS011;11549;50.852;3.816;2022-07-23T09:18:33;6.40;;;4.38;;
22764;SDS011;11549;50.852;3.816;2022-07-23T09:23:55;5.68;;;3.53;;
22764;SDS011;11549;50.852;3.816;2022-07-23T09:26:27;7.50;;;4.40;;
22764;SDS011;11549;50.852;3.816;2022-07-23T09:29:07;7.53;;;4.45;;
22764;SDS011;11549;50.852;3.816;2022-07-23T09:31:47;7.53;;;3.97;;
22764;SDS011;11549;50.852;3.816;2022-07-23T09:34:19;7.75;;;4.18;;
22764;SDS011;11549;50.852;3.816;2022-07-23T09:36:50;7.00;;;4.72;;
22764;SDS011;11549;50.852;3.816;2022-07-23T09:39:25;7.43;;;4.72;;
22764;SDS011;11549;50.852;3.816;2022-07-23T09:41:55;8.52;;;5.35;;
22764;SDS011;11549;50.852;3.816;2022-07-23T09:44:24;6.90;;;4.90;;
22764;SDS011;11549;50.852;3.816;2022-07-23T09:46:57;6.05;;;4.40;;
22764;SDS011;11549;50.852;3.816;2022-07-23T09:49:28;7.45;;;4.63;;
22764;SDS011;11549;50.852;3.816;2022-07-23T09:51:57;6.85;;;4.15;;
22764;SDS011;11549;50.852;3.816;2022-07-23T09:54:28;7.72;;;4.85;;
22764;SDS011;11549;50.852;3.816;2022-07-23T09:57:00;9.00;;;5.82;;
22764;SDS011;11549;50.852;3.816;2022-07-23T09:59:32;7.40;;;5.60;;
22764;SDS011;11549;50.852;3.816;2022-07-23T10:02:03;6.70;;;4.60;;
22764;SDS011;11549;50.852;3.816;2022-07-23T10:04:34;7.22;;;5.60;;
22764;SDS011;11549;50.852;3.816;2022-07-23T10:07:05;7.85;;;5.10;;
22764;SDS011;11549;50.852;3.816;2022-07-23T10:12:09;8.38;;;5.38;;
22764;SDS011;11549;50.852;3.816;2022-07-23T10:14:58;7.85;;;5.20;;
22764;SDS011;11549;50.852;3.816;2022-07-23T10:17:27;8.63;;;5.60;;
22764;SDS011;11549;50.852;3.816;2022-07-23T10:19:57;7.32;;;5.22;;
22764;SDS011;11549;50.852;3.816;2022-07-23T10:22:27;8.25;;;4.97;;
22764;SDS011;11549;50.852;3.816;2022-07-23T10:25:00;6.18;;;4.63;;
22764;SDS011;11549;50.852;3.816;2022-07-23T10:27:42;6.88;;;4.32;;
22764;SDS011;11549;50.852;3.816;2022-07-23T10:30:20;6.65;;;4.22;;
22764;SDS011;11549;50.852;3.816;2022-07-23T10:32:59;6.70;;;4.25;;
22764;SDS011;11549;50.852;3.816;2022-07-23T10:35:42;5.72;;;4.47;;
22764;SDS011;11549;50.852;3.816;2022-07-23T10:38:16;6.05;;;4.03;;
22764;SDS011;11549;50.852;3.816;2022-07-23T10:40:52;7.18;;;4.78;;
22764;SDS011;11549;50.852;3.816;2022-07-23T10:43:22;9.43;;;5.38;;
22764;SDS011;11549;50.852;3.816;2022-07-23T10:45:51;8.10;;;5.13;;
22764;SDS011;11549;50.852;3.816;2022-07-23T10:48:21;6.45;;;4.22;;
22764;SDS011;11549;50.852;3.816;2022-07-23T10:51:10;4.93;;;3.88;;
22764;SDS011;11549;50.852;3.816;2022-07-23T10:53:52;7.05;;;4.57;;
22764;SDS011;11549;50.852;3.816;2022-07-23T10:59:23;5.07;;;3.17;;
22764;SDS011;11549;50.852;3.816;2022-07-23T11:01:51;9.10;;;5.15;;
22764;SDS011;11549;50.852;3.816;2022-07-23T11:04:20;5.15;;;3.70;;
22764;SDS011;11549;50.852;3.816;2022-07-23T11:07:19;5.63;;;3.90;;
22764;SDS011;11549;50.852;3.816;2022-07-23T11:09:48;5.30;;;3.05;;
22764;SDS011;11549;50.852;3.816;2022-07-23T11:12:32;6.93;;;3.42;;
22764;SDS011;11549;50.852;3.816;2022-07-23T11:15:03;6.43;;;3.72;;
22764;SDS011;11549;50.852;3.816;2022-07-23T11:17:34;4.85;;;3.05;;
22764;SDS011;11549;50.852;3.816;2022-07-23T11:20:16;4.45;;;3.25;;
22764;SDS011;11549;50.852;3.816;2022-07-23T11:22:48;6.95;;;3.92;;
22764;SDS011;11549;50.852;3.816;2022-07-23T11:25:32;6.68;;;3.53;;
22764;SDS011;11549;50.852;3.816;2022-07-23T11:28:08;9.35;;;4.97;;
22764;SDS011;11549;50.852;3.816;2022-07-23T11:30:39;7.22;;;4.43;;
22764;SDS011;11549;50.852;3.816;2022-07-23T11:33:21;6.65;;;4.47;;
22764;SDS011;11549;50.852;3.816;2022-07-23T11:35:59;6.70;;;3.70;;
22764;SDS011;11549;50.852;3.816;2022-07-23T11:38:31;6.82;;;4.68;;
22764;SDS011;11549;50.852;3.816;2022-07-23T11:41:00;6.65;;;4.75;;
22764;SDS011;11549;50.852;3.816;2022-07-23T11:43:28;6.10;;;4.63;;
22764;SDS011;11549;50.852;3.816;2022-07-23T11:45:57;5.65;;;4.15;;
22764;SDS011;11549;50.852;3.816;2022-07-23T11:48:28;7.53;;;4.20;;
22764;SDS011;11549;50.852;3.816;2022-07-23T11:50:59;6.30;;;3.58;;
22764;SDS011;11549;50.852;3.816;2022-07-23T11:53:29;5.88;;;3.60;;
22764;SDS011;11549;50.852;3.816;2022-07-23T11:56:04;6.75;;;3.50;;
22764;SDS011;11549;50.852;3.816;2022-07-23T11:58:33;4.82;;;3.10;;
22764;SDS011;11549;50.852;3.816;2022-07-23T12:01:02;5.85;;;3.08;;
22764;SDS011;11549;50.852;3.816;2022-07-23T12:03:30;4.95;;;3.55;;
22764;SDS011;11549;50.852;3.816;2022-07-23T12:05:59;5.43;;;3.60;;
22764;SDS011;11549;50.852;3.816;2022-07-23T12:08:28;5.68;;;3.10;;
22764;SDS011;11549;50.852;3.816;2022-07-23T12:10:58;4.72;;;3.17;;
22764;SDS011;11549;50.852;3.816;2022-07-23T12:13:26;4.50;;;2.97;;
22764;SDS011;11549;50.852;3.816;2022-07-23T12:15:56;6.03;;;3.30;;
22764;SDS011;11549;50.852;3.816;2022-07-23T12:18:27;3.80;;;2.80;;
22764;SDS011;11549;50.852;3.816;2022-07-23T12:20:56;4.43;;;2.80;;
22764;SDS011;11549;50.852;3.816;2022-07-23T12:23:30;5.60;;;3.00;;
22764;SDS011;11549;50.852;3.816;2022-07-23T12:26:01;8.02;;;3.17;;
22764;SDS011;11549;50.852;3.816;2022-07-23T12:28:30;6.35;;;3.20;;
22764;SDS011;11549;50.852;3.816;2022-07-23T12:31:02;6.35;;;2.97;;
22764;SDS011;11549;50.852;3.816;2022-07-23T12:33:31;5.80;;;4.10;;
22764;SDS011;11549;50.852;3.816;2022-07-23T12:36:01;5.13;;;3.20;;
22764;SDS011;11549;50.852;3.816;2022-07-23T12:38:36;5.60;;;3.63;;
22764;SDS011;11549;50.852;3.816;2022-07-23T12:41:07;6.10;;;3.63;;
22764;SDS011;11549;50.852;3.816;2022-07-23T12:43:37;5.82;;;3.40;;
22764;SDS011;11549;50.852;3.816;2022-07-23T12:46:07;5.13;;;3.20;;
22764;SDS011;11549;50.852;3.816;2022-07-23T12:48:37;5.95;;;3.80;;
22764;SDS011;11549;50.852;3.816;2022-07-23T12:51:07;7.07;;;3.63;;
22764;SDS011;11549;50.852;3.816;2022-07-23T12:53:44;5.53;;;3.60;;
22764;SDS011;11549;50.852;3.816;2022-07-23T12:56:16;5.57;;;3.60;;
22764;SDS011;11549;50.852;3.816;2022-07-23T12:58:46;5.43;;;3.50;;
22764;SDS011;11549;50.852;3.816;2022-07-23T13:01:26;5.80;;;3.63;;
22764;SDS011;11549;50.852;3.816;2022-07-23T13:03:57;5.10;;;3.47;;
22764;SDS011;11549;50.852;3.816;2022-07-23T13:06:27;5.85;;;3.60;;
22764;SDS011;11549;50.852;3.816;2022-07-23T13:08:58;6.28;;;3.88;;
22764;SDS011;11549;50.852;3.816;2022-07-23T13:11:30;5.03;;;3.38;;
22764;SDS011;11549;50.852;3.816;2022-07-23T13:14:00;4.68;;;3.70;;
22764;SDS011;11549;50.852;3.816;2022-07-23T13:16:28;8.48;;;3.72;;
22764;SDS011;11549;50.852;3.816;2022-07-23T13:18:58;5.55;;;3.28;;
22764;SDS011;11549;50.852;3.816;2022-07-23T13:21:28;6.70;;;3.78;;
22764;SDS011;11549;50.852;3.816;2022-07-23T13:23:57;4.70;;;3.35;;
22764;SDS011;11549;50.852;3.816;2022-07-23T13:26:25;6.18;;;3.53;;
22764;SDS011;11549;50.852;3.816;2022-07-23T13:28:56;7.85;;;4.40;;
22764;SDS011;11549;50.852;3.816;2022-07-23T13:31:28;5.90;;;4.18;;
22764;SDS011;11549;50.852;3.816;2022-07-23T13:33:57;5.05;;;3.85;;
22764;SDS011;11549;50.852;3.816;2022-07-23T13:36:25;6.35;;;3.70;;
22764;SDS011;11549;50.852;3.816;2022-07-23T13:38:54;6.40;;;4.18;;
22764;SDS011;11549;50.852;3.816;2022-07-23T13:41:22;5.82;;;3.83;;
22764;SDS011;11549;50.852;3.816;2022-07-23T13:43:51;6.70;;;4.00;;
22764;SDS011;11549;50.852;3.816;2022-07-23T13:46:23;6.78;;;4.50;;
22764;SDS011;11549;50.852;3.816;2022-07-23T13:48:52;5.43;;;4.30;;
22764;SDS011;11549;50.852;3.816;2022-07-23T13:51:20;7.13;;;4.35;;
22764;SDS011;11549;50.852;3.816;2022-07-23T13:53:51;6.18;;;4.50;;
22764;SDS011;11549;50.852;3.816;2022-07-23T13:56:21;5.65;;;3.90;;
22764;SDS011;11549;50.852;3.816;2022-07-23T13:58:49;5.88;;;4.20;;
22764;SDS011;11549;50.852;3.816;2022-07-23T14:01:17;7.05;;;4.80;;
22764;SDS011;11549;50.852;3.816;2022-07-23T14:03:47;5.47;;;4.38;;
22764;SDS011;11549;50.852;3.816;2022-07-23T14:06:16;6.53;;;4.55;;
22764;SDS011;11549;50.852;3.816;2022-07-23T14:08:55;7.00;;;4.70;;
22764;SDS011;11549;50.852;3.816;2022-07-23T14:11:23;7.13;;;4.32;;
22764;SDS011;11549;50.852;3.816;2022-07-23T14:13:54;6.50;;;4.50;;
22764;SDS011;11549;50.852;3.816;2022-07-23T14:16:24;5.88;;;4.30;;
22764;SDS011;11549;50.852;3.816;2022-07-23T14:18:53;5.80;;;4.38;;
22764;SDS011;11549;50.852;3.816;2022-07-23T14:21:22;5.00;;;4.50;;
22764;SDS011;11549;50.852;3.816;2022-07-23T14:23:52;6.45;;;4.60;;
22764;SDS011;11549;50.852;3.816;2022-07-23T14:26:21;6.13;;;4.88;;
22764;SDS011;11549;50.852;3.816;2022-07-23T14:28:49;5.95;;;4.70;;
22764;SDS011;11549;50.852;3.816;2022-07-23T14:31:17;6.65;;;5.10;;
22764;SDS011;11549;50.852;3.816;2022-07-23T14:33:47;5.65;;;4.55;;
22764;SDS011;11549;50.852;3.816;2022-07-23T14:36:16;8.20;;;5.40;;
22764;SDS011;11549;50.852;3.816;2022-07-23T14:38:46;7.22;;;5.72;;
22764;SDS011;11549;50.852;3.816;2022-07-23T14:41:15;6.38;;;4.88;;
22764;SDS011;11549;50.852;3.816;2022-07-23T14:43:44;5.55;;;4.60;;
22764;SDS011;11549;50.852;3.816;2022-07-23T14:46:13;5.88;;;4.80;;
22764;SDS011;11549;50.852;3.816;2022-07-23T14:48:44;6.07;;;4.93;;
22764;SDS011;11549;50.852;3.816;2022-07-23T14:51:12;7.13;;;5.63;;
22764;SDS011;11549;50.852;3.816;2022-07-23T14:53:43;5.63;;;4.80;;
22764;SDS011;11549;50.852;3.816;2022-07-23T14:56:11;6.28;;;5.07;;
22764;SDS011;11549;50.852;3.816;2022-07-23T14:58:40;9.02;;;6.00;;